createdAt,value
2022-12-31T00:05:00.688Z,8.20
2022-12-31T00:10:04.661Z,9.30
2022-12-31T00:15:07.906Z,9.00
2022-12-31T00:20:11.655Z,10.00
2022-12-31T00:25:14.452Z,8.40
2022-12-31T00:30:17.340Z,5.70
2022-12-31T00:35:20.160Z,6.80
2022-12-31T00:40:23.063Z,7.70
2022-12-31T00:45:25.967Z,10.60
2022-12-31T00:50:28.768Z,8.40
2022-12-31T00:55:31.587Z,8.80
2022-12-31T01:00:34.372Z,7.70
2022-12-31T01:05:38.415Z,10.50
2022-12-31T01:11:00.655Z,10.80
2022-12-31T01:16:12.159Z,13.30
2022-12-31T01:21:15.885Z,9.70
2022-12-31T01:26:19.681Z,10.00
2022-12-31T01:31:24.317Z,11.40
2022-12-31T01:36:29.859Z,11.50
2022-12-31T01:41:35.604Z,7.20
2022-12-31T01:46:52.319Z,7.80
2022-12-31T01:52:00.467Z,8.40
2022-12-31T01:57:05.357Z,10.00
2022-12-31T02:02:08.451Z,8.20
2022-12-31T02:07:12.191Z,12.40
2022-12-31T02:12:15.852Z,10.90
2022-12-31T02:17:37.499Z,13.30
2022-12-31T02:23:13.593Z,13.20
2022-12-31T02:28:29.184Z,12.40
2022-12-31T02:33:52.556Z,8.90
2022-12-31T02:38:57.610Z,8.40
2022-12-31T02:44:00.726Z,8.60
2022-12-31T02:49:45.324Z,9.60
2022-12-31T02:55:11.507Z,9.90
2022-12-31T03:00:35.803Z,10.30
2022-12-31T03:05:43.447Z,10.20
2022-12-31T03:10:46.183Z,10.40
2022-12-31T03:15:49.586Z,11.90
2022-12-31T03:21:11.343Z,10.80
2022-12-31T03:26:14.076Z,9.40
2022-12-31T03:31:16.981Z,10.30
2022-12-31T03:36:19.855Z,8.60
2022-12-31T03:41:22.663Z,8.80
2022-12-31T03:46:25.459Z,10.60
2022-12-31T03:51:28.296Z,9.20
2022-12-31T03:56:31.044Z,10.50
2022-12-31T04:01:33.988Z,8.10
2022-12-31T04:06:36.876Z,10.20
2022-12-31T04:11:39.678Z,10.80
2022-12-31T04:16:42.625Z,9.90
2022-12-31T04:21:45.475Z,11.10
2022-12-31T04:26:48.377Z,6.90
2022-12-31T04:31:51.318Z,9.30
2022-12-31T04:36:54.196Z,8.50
2022-12-31T04:41:56.948Z,8.00
2022-12-31T04:46:59.722Z,10.60
2022-12-31T04:52:03.361Z,10.60
2022-12-31T04:57:06.645Z,11.80
2022-12-31T05:02:10.056Z,10.60
2022-12-31T05:07:13.048Z,7.50
2022-12-31T05:12:15.847Z,9.90
2022-12-31T05:17:20.900Z,7.90
2022-12-31T05:22:29.648Z,9.90
2022-12-31T05:27:32.528Z,10.60
2022-12-31T05:32:35.687Z,9.60
2022-12-31T05:37:39.314Z,7.40
2022-12-31T05:42:42.064Z,8.60
2022-12-31T05:47:45.343Z,9.30
2022-12-31T05:52:48.299Z,8.30
2022-12-31T05:57:51.098Z,10.50
2022-12-31T06:02:53.964Z,10.60
2022-12-31T06:07:56.907Z,11.70
2022-12-31T06:12:59.903Z,8.60
2022-12-31T06:18:02.664Z,7.50
2022-12-31T06:23:06.144Z,10.70
2022-12-31T06:28:12.183Z,7.70
2022-12-31T06:33:20.781Z,8.30
2022-12-31T06:38:26.107Z,7.60
2022-12-31T06:43:28.832Z,9.50
2022-12-31T06:48:32.102Z,8.80
2022-12-31T06:53:34.908Z,9.50
2022-12-31T06:58:38.377Z,8.60
2022-12-31T07:03:58.754Z,9.40
2022-12-31T07:09:06.061Z,9.40
2022-12-31T07:14:30.885Z,8.80
2022-12-31T07:19:46.080Z,8.20
2022-12-31T07:24:49.475Z,8.10
2022-12-31T07:30:15.143Z,8.40
2022-12-31T07:35:35.449Z,7.60
2022-12-31T07:41:23.297Z,8.30
2022-12-31T07:46:39.538Z,8.00
2022-12-31T07:51:42.875Z,7.80
2022-12-31T07:56:46.133Z,8.30
2022-12-31T08:02:14.592Z,7.10
2022-12-31T08:07:47.355Z,6.60
2022-12-31T08:12:50.705Z,4.80
2022-12-31T08:17:54.424Z,7.90
2022-12-31T08:23:25.926Z,7.60
2022-12-31T08:29:17.468Z,6.70
2022-12-31T08:34:49.505Z,6.20
2022-12-31T08:40:11.231Z,7.10
2022-12-31T08:45:25.129Z,7.50
2022-12-31T08:50:29.219Z,7.30
2022-12-31T08:55:32.582Z,7.20
2022-12-31T09:00:36.572Z,7.30
2022-12-31T09:05:55.193Z,7.60
2022-12-31T09:11:22.948Z,7.70
2022-12-31T09:16:51.513Z,8.20
2022-12-31T09:21:55.456Z,8.30
2022-12-31T09:27:28.041Z,7.90
2022-12-31T09:33:07.764Z,7.20
2022-12-31T09:38:30.937Z,7.80
2022-12-31T09:43:45.263Z,7.60
2022-12-31T09:49:06.425Z,6.80
2022-12-31T09:54:39.706Z,6.40
2022-12-31T10:00:20.489Z,7.10
2022-12-31T10:06:01.117Z,6.50
2022-12-31T10:11:06.400Z,6.90
2022-12-31T10:16:18.653Z,7.30
2022-12-31T10:21:30.825Z,7.60
2022-12-31T10:26:41.865Z,6.60
2022-12-31T10:32:14.313Z,7.60
2022-12-31T10:37:38.518Z,8.60
2022-12-31T10:43:08.172Z,10.00
2022-12-31T10:48:41.687Z,9.80
2022-12-31T10:54:06.222Z,6.60
2022-12-31T10:59:09.301Z,8.80
2022-12-31T11:04:45.607Z,7.60
2022-12-31T11:10:13.539Z,8.20
2022-12-31T11:15:22.488Z,8.70
2022-12-31T11:21:03.437Z,6.60
2022-12-31T11:26:12.972Z,6.40
2022-12-31T11:36:38.644Z,7.30
2022-12-31T11:42:27.099Z,7.20
2022-12-31T11:47:56.544Z,6.50
2022-12-31T11:53:24.039Z,6.00
2022-12-31T11:58:29.005Z,6.70
2022-12-31T12:03:32.176Z,6.30
2022-12-31T12:08:36.038Z,8.40
2022-12-31T12:13:38.914Z,5.10
2022-12-31T12:18:44.671Z,5.60
2022-12-31T12:24:05.309Z,5.00
2022-12-31T12:29:22.351Z,7.10
2022-12-31T12:34:28.529Z,7.10
2022-12-31T12:39:33.803Z,6.20
2022-12-31T12:44:36.704Z,8.00
2022-12-31T12:49:42.157Z,7.30
2022-12-31T12:55:06.953Z,7.10
2022-12-31T13:00:18.408Z,6.50
2022-12-31T13:05:43.199Z,7.70
2022-12-31T13:10:58.702Z,6.20
2022-12-31T13:16:18.462Z,7.10
2022-12-31T13:21:49.166Z,5.90
2022-12-31T13:26:58.697Z,5.50
2022-12-31T13:37:22.473Z,6.20
2022-12-31T13:42:32.902Z,6.80
2022-12-31T13:47:43.088Z,5.40
2022-12-31T13:52:54.693Z,4.10
2022-12-31T13:58:19.617Z,3.70
2022-12-31T14:03:44.339Z,5.80
2022-12-31T14:08:47.141Z,5.30
2022-12-31T14:14:13.843Z,6.30
2022-12-31T14:19:16.661Z,5.70
2022-12-31T14:24:43.189Z,6.80
2022-12-31T14:29:51.081Z,5.10
2022-12-31T14:35:25.319Z,4.70
2022-12-31T14:40:43.886Z,5.60
2022-12-31T14:46:09.850Z,5.70
2022-12-31T14:51:13.591Z,4.80
2022-12-31T14:56:45.868Z,4.70
2022-12-31T15:01:48.816Z,4.50
2022-12-31T15:07:02.120Z,3.80
2022-12-31T15:12:19.247Z,4.80
2022-12-31T15:17:28.691Z,6.30
2022-12-31T15:27:47.085Z,4.70
2022-12-31T15:32:50.009Z,5.50
2022-12-31T15:38:01.849Z,4.30
2022-12-31T15:43:21.387Z,4.90
2022-12-31T15:48:26.829Z,4.20
2022-12-31T15:53:34.648Z,4.20
2022-12-31T15:58:38.248Z,4.90
2022-12-31T16:03:48.108Z,3.90
2022-12-31T16:08:51.306Z,4.80
2022-12-31T16:13:56.566Z,4.40
2022-12-31T16:19:00.343Z,4.10
2022-12-31T16:24:06.459Z,4.50
2022-12-31T16:29:15.103Z,5.70
2022-12-31T16:34:22.222Z,4.80
2022-12-31T16:39:26.768Z,5.80
2022-12-31T16:44:30.660Z,5.80
2022-12-31T16:49:37.983Z,5.20
2022-12-31T16:54:46.984Z,6.00
2022-12-31T16:59:54.830Z,6.00
2022-12-31T17:04:57.751Z,5.30
2022-12-31T17:10:15.617Z,5.10
2022-12-31T17:15:26.603Z,5.40
2022-12-31T17:20:32.814Z,5.00
2022-12-31T17:25:38.666Z,5.50
2022-12-31T17:30:41.663Z,4.80
2022-12-31T17:35:45.655Z,5.20
2022-12-31T17:41:05.424Z,5.30
2022-12-31T17:46:16.905Z,4.60
2022-12-31T17:51:24.154Z,4.00
2022-12-31T17:56:27.555Z,4.50
2022-12-31T18:01:31.251Z,5.10
2022-12-31T18:06:34.112Z,4.50
2022-12-31T18:11:38.330Z,4.30
2022-12-31T18:16:41.840Z,5.20
2022-12-31T18:21:45.136Z,5.70
2022-12-31T18:26:47.848Z,5.90
2022-12-31T18:31:50.900Z,5.40
2022-12-31T18:36:53.763Z,6.30
2022-12-31T18:41:56.626Z,5.10
2022-12-31T18:46:59.429Z,5.80
2022-12-31T18:52:02.153Z,6.40
2022-12-31T18:57:04.877Z,6.20
2022-12-31T19:02:15.856Z,6.00
2022-12-31T19:07:18.740Z,6.80
2022-12-31T19:12:21.628Z,8.00
2022-12-31T19:17:24.531Z,7.40
2022-12-31T19:22:27.284Z,6.70
2022-12-31T19:27:30.001Z,6.20
2022-12-31T19:32:32.697Z,6.40
2022-12-31T19:37:35.632Z,6.20
2022-12-31T19:42:38.436Z,7.00
2022-12-31T19:47:41.236Z,6.80
2022-12-31T19:52:45.616Z,21.90
2022-12-31T19:57:49.007Z,7.90
2022-12-31T20:02:51.956Z,6.70
2022-12-31T20:07:55.003Z,6.30
2022-12-31T20:12:58.516Z,6.10
2022-12-31T20:18:01.400Z,5.60
2022-12-31T20:23:04.199Z,6.80
2022-12-31T20:28:07.007Z,6.80
2022-12-31T20:33:12.136Z,5.70
2022-12-31T20:38:19.288Z,6.70
2022-12-31T20:43:22.060Z,6.20
2022-12-31T20:48:24.817Z,6.20
2022-12-31T20:53:28.037Z,6.30
2022-12-31T20:58:31.006Z,6.00
2022-12-31T21:09:01.309Z,6.10
2022-12-31T21:14:04.910Z,5.80
2022-12-31T21:19:07.589Z,5.20
2022-12-31T21:24:10.853Z,4.80
2022-12-31T21:29:13.590Z,5.20
2022-12-31T21:34:16.840Z,4.70
2022-12-31T21:39:19.635Z,4.30
2022-12-31T21:44:24.625Z,5.20
2022-12-31T21:49:27.321Z,4.60
2022-12-31T21:54:48.546Z,4.40
2022-12-31T22:00:40.332Z,3.80
2022-12-31T22:05:32.625Z,4.60
2022-12-31T22:10:37.409Z,4.10
2022-12-31T22:15:45.980Z,4.20
2022-12-31T22:20:49.027Z,3.90
2022-12-31T22:25:51.826Z,4.30
2022-12-31T22:30:54.683Z,3.60
2022-12-31T22:36:03.290Z,3.40
2022-12-31T22:41:10.905Z,3.70
2022-12-31T22:46:16.530Z,3.10
2022-12-31T22:51:20.285Z,7.00
2022-12-31T22:56:23.009Z,5.20
2022-12-31T23:01:25.780Z,19.20
2022-12-31T23:06:29.293Z,15.70
2022-12-31T23:11:34.456Z,5.40
2022-12-31T23:16:56.169Z,3.40
2022-12-31T23:22:17.629Z,3.40
2022-12-31T23:27:20.314Z,2.60
2022-12-31T23:32:23.146Z,2.70
2022-12-31T23:37:25.901Z,2.70
2022-12-31T23:42:28.675Z,2.50
2022-12-31T23:47:31.625Z,2.50
2022-12-31T23:52:34.333Z,3.20
2022-12-31T23:57:37.564Z,2.80
